createdAt,value
2019-04-14T00:00:40.447Z,0.80
2019-04-14T00:03:21.387Z,0.80
2019-04-14T00:05:53.861Z,0.80
2019-04-14T00:08:24.088Z,0.80
2019-04-14T00:10:53.528Z,0.80
2019-04-14T00:13:23.835Z,0.70
2019-04-14T00:15:54.923Z,0.70
2019-04-14T00:18:25.496Z,0.70
2019-04-14T00:20:55.544Z,0.70
2019-04-14T00:23:26.066Z,0.70
2019-04-14T00:25:57.004Z,0.60
2019-04-14T00:28:27.119Z,0.60
2019-04-14T00:30:56.633Z,0.60
2019-04-14T00:33:28.852Z,0.50
2019-04-14T00:36:02.324Z,0.50
2019-04-14T00:38:34.471Z,0.50
2019-04-14T00:41:05.605Z,0.40
2019-04-14T00:43:37.423Z,0.40
2019-04-14T00:46:08.453Z,0.40
2019-04-14T00:48:38.728Z,0.30
2019-04-14T00:51:09.153Z,0.30
2019-04-14T00:53:38.599Z,0.30
2019-04-14T00:56:08.381Z,0.30
2019-04-14T00:58:38.937Z,0.30
2019-04-14T01:01:09.056Z,0.30
2019-04-14T01:03:39.442Z,0.20
2019-04-14T01:06:09.739Z,0.20
2019-04-14T01:08:40.214Z,0.20
2019-04-14T01:11:09.680Z,0.20
2019-04-14T01:13:39.735Z,0.20
2019-04-14T01:16:15.542Z,0.20
2019-04-14T01:18:40.770Z,0.20
2019-04-14T01:21:11.043Z,0.10
2019-04-14T01:23:41.238Z,0.20
2019-04-14T01:26:11.672Z,0.10
2019-04-14T01:28:41.887Z,0.10
2019-04-14T01:31:11.994Z,0.10
2019-04-14T01:33:42.301Z,0.20
2019-04-14T01:36:12.654Z,0.20
2019-04-14T01:38:42.824Z,0.10
2019-04-14T01:41:12.873Z,0.10
2019-04-14T01:43:42.805Z,0.10
2019-04-14T01:46:19.670Z,0.00
2019-04-14T01:48:43.212Z,0.00
2019-04-14T01:51:17.789Z,0.10
2019-04-14T01:53:58.015Z,0.10
2019-04-14T01:56:40.805Z,0.10
2019-04-14T01:59:12.782Z,0.10
2019-04-14T02:01:47.631Z,0.10
2019-04-14T02:04:18.136Z,0.10
2019-04-14T02:06:48.387Z,0.10
2019-04-14T02:09:18.649Z,0.10
2019-04-14T02:11:48.806Z,0.20
2019-04-14T02:14:19.070Z,0.20
2019-04-14T02:16:53.585Z,0.20
2019-04-14T02:19:19.883Z,0.20
2019-04-14T02:21:49.932Z,0.20
2019-04-14T02:24:20.014Z,0.20
2019-04-14T02:26:50.272Z,0.30
2019-04-14T02:29:21.194Z,0.30
2019-04-14T02:32:17.333Z,0.30
2019-04-14T02:34:49.495Z,0.40
2019-04-14T02:37:24.342Z,0.40
2019-04-14T02:39:53.608Z,0.40
2019-04-14T02:44:55.802Z,0.40
2019-04-14T02:50:14.206Z,0.40
2019-04-14T02:52:29.945Z,0.40
2019-04-14T02:57:39.990Z,0.30
2019-04-14T02:59:58.517Z,0.30
2019-04-14T03:02:29.616Z,0.40
2019-04-14T03:04:57.025Z,0.40
2019-04-14T03:07:34.083Z,0.40
2019-04-14T03:09:52.490Z,0.40
2019-04-14T03:12:36.238Z,0.40
2019-04-14T03:15:03.629Z,0.50
2019-04-14T03:17:58.560Z,0.50
2019-04-14T03:20:27.834Z,0.50
2019-04-14T03:25:34.239Z,0.50
2019-04-14T03:28:28.004Z,0.60
2019-04-14T03:33:55.614Z,0.60
2019-04-14T03:36:58.466Z,0.60
2019-04-14T03:38:49.779Z,0.70
2019-04-14T03:41:17.100Z,0.70
2019-04-14T03:43:39.277Z,0.80
2019-04-14T03:46:17.806Z,0.80
2019-04-14T03:51:18.880Z,0.80
2019-04-14T03:53:43.978Z,0.80
2019-04-14T03:56:00.648Z,0.80
2019-04-14T03:58:27.146Z,0.80
2019-04-14T04:00:57.523Z,0.80
2019-04-14T04:03:27.964Z,0.80
2019-04-14T04:05:58.538Z,0.80
2019-04-14T04:08:29.021Z,0.80
2019-04-14T04:11:00.420Z,0.80
2019-04-14T04:13:30.228Z,0.80
2019-04-14T04:16:13.804Z,0.80
2019-04-14T04:18:54.568Z,0.80
2019-04-14T04:21:20.655Z,0.90
2019-04-14T04:24:02.065Z,0.90
2019-04-14T04:26:36.609Z,0.90
2019-04-14T04:29:11.188Z,0.90
2019-04-14T04:31:48.339Z,1.00
2019-04-14T04:34:25.301Z,1.00
2019-04-14T04:36:57.401Z,1.00
2019-04-14T04:39:36.414Z,1.00
2019-04-14T04:42:05.278Z,1.00
2019-04-14T04:44:35.555Z,1.10
2019-04-14T04:47:05.719Z,1.10
2019-04-14T04:49:36.170Z,1.10
2019-04-14T04:52:06.312Z,1.10
2019-04-14T04:54:36.420Z,1.20
2019-04-14T04:57:06.767Z,1.20
2019-04-14T04:59:36.720Z,1.20
2019-04-14T05:02:07.011Z,1.30
2019-04-14T05:04:37.283Z,1.30
2019-04-14T05:07:07.804Z,1.40
2019-04-14T05:09:39.151Z,1.40
2019-04-14T05:12:19.597Z,1.50
2019-04-14T05:14:56.708Z,1.50
2019-04-14T05:17:29.788Z,1.60
2019-04-14T05:19:59.180Z,1.60
2019-04-14T05:22:28.918Z,1.70
2019-04-14T05:24:59.212Z,1.70
2019-04-14T05:27:29.755Z,1.80
2019-04-14T05:30:00.412Z,1.80
2019-04-14T05:32:30.535Z,1.80
2019-04-14T05:35:00.870Z,1.90
2019-04-14T05:37:31.296Z,1.90
2019-04-14T05:40:01.634Z,1.90
2019-04-14T05:42:32.221Z,1.90
2019-04-14T05:45:02.509Z,2.00
2019-04-14T05:47:32.590Z,2.00
2019-04-14T05:50:03.105Z,2.00
2019-04-14T05:52:32.549Z,2.00
2019-04-14T05:55:02.470Z,2.10
2019-04-14T05:57:32.693Z,2.10
2019-04-14T06:00:02.110Z,2.20
2019-04-14T06:02:33.578Z,2.20
2019-04-14T06:05:03.704Z,2.20
2019-04-14T06:07:34.149Z,2.30
2019-04-14T06:10:04.865Z,2.40
2019-04-14T06:12:34.135Z,2.50
2019-04-14T06:15:04.170Z,2.60
2019-04-14T06:17:33.509Z,2.70
2019-04-14T06:20:02.791Z,2.70
2019-04-14T06:22:32.072Z,2.80
2019-04-14T06:25:01.374Z,2.90
2019-04-14T06:27:30.636Z,2.90
2019-04-14T06:30:01.553Z,3.00
2019-04-14T06:32:35.403Z,3.00
2019-04-14T06:35:12.620Z,3.10
2019-04-14T06:38:00.137Z,3.20
2019-04-14T06:40:34.244Z,3.20
2019-04-14T06:43:03.532Z,3.30
2019-04-14T06:45:32.819Z,3.40
2019-04-14T06:48:02.092Z,3.50
2019-04-14T06:50:31.372Z,3.60
2019-04-14T06:53:00.657Z,3.70
2019-04-14T06:55:29.961Z,3.80
2019-04-14T06:57:59.216Z,3.90
2019-04-14T07:00:28.502Z,4.00
2019-04-14T07:02:57.813Z,4.10
2019-04-14T07:05:28.366Z,4.20
2019-04-14T07:07:57.746Z,4.30
2019-04-14T07:10:27.114Z,4.40
2019-04-14T07:12:56.589Z,4.50
2019-04-14T07:15:25.893Z,4.60
2019-04-14T07:17:55.174Z,4.70
2019-04-14T07:20:24.452Z,4.80
2019-04-14T07:22:53.717Z,4.90
2019-04-14T07:25:22.993Z,4.90
2019-04-14T07:27:52.273Z,4.90
2019-04-14T07:30:41.248Z,5.00
2019-04-14T07:33:12.173Z,5.00
2019-04-14T07:35:49.281Z,5.10
2019-04-14T07:38:24.308Z,5.20
2019-04-14T07:40:55.239Z,5.30
2019-04-14T07:43:28.847Z,5.30
2019-04-14T07:45:59.751Z,5.50
2019-04-14T07:48:39.553Z,5.60
2019-04-14T07:51:10.494Z,5.60
2019-04-14T07:53:59.572Z,5.80
2019-04-14T07:56:46.497Z,5.80
2019-04-14T07:59:17.403Z,6.00
2019-04-14T08:01:51.136Z,6.00
2019-04-14T08:04:22.048Z,6.10
2019-04-14T08:06:53.297Z,6.20
2019-04-14T08:09:22.563Z,6.30
2019-04-14T08:11:51.832Z,6.30
2019-04-14T08:14:21.113Z,6.30
2019-04-14T08:16:50.384Z,6.30
2019-04-14T08:19:19.662Z,6.30
2019-04-14T08:21:48.924Z,6.40
2019-04-14T08:24:18.208Z,6.40
2019-04-14T08:26:47.472Z,6.50
2019-04-14T08:29:16.781Z,6.60
2019-04-14T08:31:46.041Z,6.70
2019-04-14T08:34:15.327Z,6.80
2019-04-14T08:36:44.601Z,6.80
2019-04-14T08:39:13.896Z,6.90
2019-04-14T08:41:47.756Z,6.90
2019-04-14T08:44:24.676Z,6.90
2019-04-14T08:46:58.528Z,7.00
2019-04-14T08:49:41.245Z,7.10
2019-04-14T08:52:24.262Z,7.20
2019-04-14T08:55:01.529Z,7.30
2019-04-14T08:57:32.458Z,7.40
2019-04-14T09:00:18.740Z,7.50
2019-04-14T09:03:05.830Z,7.50
2019-04-14T09:05:53.303Z,7.60
2019-04-14T09:08:36.232Z,7.60
2019-04-14T09:11:12.663Z,7.70
2019-04-14T09:13:41.942Z,7.70
2019-04-14T09:16:11.211Z,7.80
2019-04-14T09:18:40.498Z,7.90
2019-04-14T09:21:09.789Z,8.00
2019-04-14T09:23:39.114Z,8.10
2019-04-14T09:26:08.409Z,8.20
2019-04-14T09:28:37.672Z,8.30
2019-04-14T09:31:06.952Z,8.40
2019-04-14T09:33:36.224Z,8.40
2019-04-14T09:36:05.501Z,8.40
2019-04-14T09:38:34.786Z,8.40
2019-04-14T09:41:04.064Z,8.50
2019-04-14T09:43:33.330Z,8.50
2019-04-14T09:46:02.635Z,8.60
2019-04-14T09:48:31.886Z,8.70
2019-04-14T09:51:04.963Z,8.70
2019-04-14T09:53:32.169Z,8.70
2019-04-14T09:56:02.526Z,8.80
2019-04-14T09:58:31.792Z,8.90
2019-04-14T10:01:01.093Z,9.00
2019-04-14T10:03:30.432Z,9.10
2019-04-14T10:05:59.799Z,9.20
2019-04-14T10:08:29.145Z,9.30
2019-04-14T10:10:58.429Z,9.40
2019-04-14T10:13:27.705Z,9.50
2019-04-14T10:15:56.996Z,9.50
2019-04-14T10:18:26.280Z,9.60
2019-04-14T10:20:55.553Z,9.60
2019-04-14T10:23:25.814Z,9.70
2019-04-14T10:25:55.176Z,9.80
2019-04-14T10:28:24.453Z,9.90
2019-04-14T10:30:53.736Z,10.00
2019-04-14T10:33:23.009Z,10.10
2019-04-14T10:35:52.280Z,10.20
2019-04-14T10:38:21.576Z,10.30
2019-04-14T10:40:50.849Z,10.30
2019-04-14T10:43:21.108Z,10.30
2019-04-14T10:45:51.356Z,10.30
2019-04-14T10:48:20.642Z,10.40
2019-04-14T10:50:50.892Z,10.50
2019-04-14T10:53:20.186Z,10.60
2019-04-14T10:55:49.466Z,10.70
2019-04-14T10:58:18.757Z,10.80
2019-04-14T11:00:48.109Z,10.90
2019-04-14T11:03:17.408Z,11.00
2019-04-14T11:06:03.465Z,11.00
2019-04-14T11:08:32.773Z,11.10
2019-04-14T11:11:03.582Z,11.10
2019-04-14T11:13:32.884Z,11.20
2019-04-14T11:16:02.181Z,11.30
2019-04-14T11:18:31.465Z,11.40
2019-04-14T11:21:00.814Z,11.50
2019-04-14T11:23:30.088Z,11.60
2019-04-14T11:25:59.386Z,11.80
2019-04-14T11:28:28.692Z,11.80
2019-04-14T11:30:58.146Z,11.90
2019-04-14T11:33:45.665Z,11.90
2019-04-14T11:36:19.341Z,11.90
2019-04-14T11:38:56.065Z,11.90
2019-04-14T11:41:25.365Z,11.90
2019-04-14T11:43:54.709Z,11.70
2019-04-14T11:46:23.982Z,11.60
2019-04-14T11:48:53.327Z,11.50
2019-04-14T11:51:22.634Z,11.40
2019-04-14T11:53:51.908Z,11.30
2019-04-14T11:56:21.185Z,11.30
2019-04-14T11:58:50.469Z,11.20
2019-04-14T12:01:37.865Z,11.20
2019-04-14T12:04:14.891Z,11.30
2019-04-14T12:06:58.130Z,11.30
2019-04-14T12:09:32.020Z,11.30
2019-04-14T12:12:01.385Z,11.40
2019-04-14T12:14:30.685Z,11.50
2019-04-14T12:16:59.968Z,11.60
2019-04-14T12:19:29.276Z,11.80
2019-04-14T12:22:08.299Z,11.80
2019-04-14T12:24:29.878Z,11.90
2019-04-14T12:26:59.175Z,12.00
2019-04-14T12:29:30.473Z,11.90
2019-04-14T12:32:00.137Z,12.00
2019-04-14T12:34:29.485Z,12.10
2019-04-14T12:36:58.836Z,12.20
2019-04-14T12:39:28.209Z,12.40
2019-04-14T12:45:00.378Z,12.60
2019-04-14T12:47:39.804Z,12.70
2019-04-14T12:50:16.680Z,12.80
2019-04-14T12:52:45.977Z,13.00
2019-04-14T12:55:15.328Z,13.10
2019-04-14T12:57:49.029Z,13.10
2019-04-14T13:00:21.185Z,13.20
2019-04-14T13:02:52.107Z,13.40
2019-04-14T13:05:21.397Z,13.70
2019-04-14T13:07:50.683Z,14.10
2019-04-14T13:10:20.025Z,14.40
2019-04-14T13:12:49.316Z,14.50
2019-04-14T13:15:18.654Z,14.60
2019-04-14T13:17:48.028Z,14.50
2019-04-14T13:20:17.325Z,14.50
2019-04-14T13:22:46.638Z,14.50
2019-04-14T13:25:15.981Z,14.60
2019-04-14T13:27:45.409Z,14.90
2019-04-14T13:30:16.466Z,15.20
2019-04-14T13:32:45.749Z,15.30
2019-04-14T13:35:15.046Z,15.40
2019-04-14T13:37:44.320Z,15.50
2019-04-14T13:40:14.840Z,15.70
2019-04-14T13:42:44.111Z,15.70
2019-04-14T13:45:13.483Z,15.70
2019-04-14T13:47:42.762Z,15.80
2019-04-14T13:50:13.543Z,15.90
2019-04-14T13:52:46.961Z,16.10
2019-04-14T13:55:13.965Z,16.30
2019-04-14T13:57:43.325Z,16.40
2019-04-14T14:00:13.816Z,16.10
2019-04-14T14:02:43.553Z,15.70
2019-04-14T14:05:12.822Z,15.40
2019-04-14T14:07:42.099Z,15.00
2019-04-14T14:10:12.013Z,15.00
2019-04-14T14:12:42.947Z,15.10
2019-04-14T14:15:13.980Z,15.20
2019-04-14T14:17:44.895Z,15.40
2019-04-14T14:20:26.024Z,15.50
2019-04-14T14:23:12.209Z,15.60
2019-04-14T14:25:43.124Z,15.70
2019-04-14T14:28:12.410Z,15.80
2019-04-14T14:30:41.769Z,15.90
2019-04-14T14:33:11.048Z,16.10
2019-04-14T14:35:40.334Z,16.60
2019-04-14T14:38:09.616Z,17.20
2019-04-14T14:40:38.899Z,17.50
2019-04-14T14:43:08.185Z,17.80
2019-04-14T14:45:41.916Z,17.90
2019-04-14T14:48:18.742Z,17.80
2019-04-14T14:50:55.584Z,17.70
2019-04-14T14:53:24.934Z,17.70
2019-04-14T14:55:56.896Z,17.40
2019-04-14T14:58:26.172Z,17.00
2019-04-14T15:00:55.451Z,16.90
2019-04-14T15:03:24.749Z,16.90
2019-04-14T15:05:54.040Z,17.20
2019-04-14T15:08:23.322Z,17.30
2019-04-14T15:10:52.596Z,17.20
2019-04-14T15:13:22.045Z,17.30
2019-04-14T15:15:51.369Z,17.60
2019-04-14T15:18:20.617Z,17.80
2019-04-14T15:20:51.211Z,18.10
2019-04-14T15:23:25.376Z,18.40
2019-04-14T15:25:51.717Z,18.50
2019-04-14T15:28:21.005Z,18.50
2019-04-14T15:30:50.301Z,18.40
2019-04-14T15:33:19.573Z,18.40
2019-04-14T15:35:48.853Z,18.40
2019-04-14T15:38:18.137Z,18.40
2019-04-14T15:40:47.435Z,18.30
2019-04-14T15:43:16.712Z,18.20
2019-04-14T15:45:46.031Z,18.00
2019-04-14T15:48:15.353Z,17.60
2019-04-14T15:50:45.611Z,17.10
2019-04-14T15:53:14.893Z,16.70
2019-04-14T15:55:44.189Z,16.30
2019-04-14T15:58:31.366Z,16.10
2019-04-14T16:01:18.792Z,16.00
2019-04-14T16:03:49.716Z,15.80
2019-04-14T16:06:37.956Z,15.70
2019-04-14T16:09:09.915Z,15.50
2019-04-14T16:12:00.491Z,15.20
2019-04-14T16:14:31.415Z,15.10
2019-04-14T16:17:11.130Z,15.00
2019-04-14T16:19:42.123Z,14.90
2019-04-14T16:22:11.440Z,14.70
2019-04-14T16:24:40.745Z,14.40
2019-04-14T16:27:24.009Z,14.30
2019-04-14T16:30:06.862Z,14.20
2019-04-14T16:32:54.668Z,14.10
2019-04-14T16:35:28.266Z,13.90
2019-04-14T16:37:57.556Z,13.80
2019-04-14T16:40:26.868Z,13.60
2019-04-14T16:42:56.212Z,13.40
2019-04-14T16:45:25.645Z,13.30
2019-04-14T16:47:54.944Z,13.20
2019-04-14T16:50:24.224Z,13.20
2019-04-14T16:52:57.868Z,13.10
2019-04-14T16:55:31.244Z,13.00
2019-04-14T16:58:05.101Z,13.00
2019-04-14T17:00:37.233Z,12.90
2019-04-14T17:03:06.709Z,12.80
2019-04-14T17:05:38.894Z,12.60
2019-04-14T17:08:07.016Z,12.50
2019-04-14T17:10:36.312Z,12.40
2019-04-14T17:13:05.657Z,12.20
2019-04-14T17:15:36.574Z,12.00
2019-04-14T17:18:23.713Z,11.90
2019-04-14T17:21:12.632Z,11.70
2019-04-14T17:23:58.544Z,11.70
2019-04-14T17:26:29.478Z,11.60
2019-04-14T17:29:00.404Z,11.50
2019-04-14T17:31:37.325Z,11.40
2019-04-14T17:34:26.838Z,11.30
2019-04-14T17:37:03.692Z,11.20
2019-04-14T17:39:46.757Z,11.00
2019-04-14T17:42:18.748Z,10.90
2019-04-14T17:44:49.682Z,10.90
2019-04-14T17:47:37.134Z,10.80
2019-04-14T17:50:17.782Z,10.70
2019-04-14T17:53:12.149Z,10.60
2019-04-14T17:55:55.316Z,10.40
2019-04-14T17:58:26.242Z,10.30
2019-04-14T18:01:13.633Z,10.20
2019-04-14T18:03:44.552Z,10.10
2019-04-14T18:06:18.496Z,9.90
2019-04-14T18:09:05.406Z,9.80
2019-04-14T18:11:51.771Z,9.70
2019-04-14T18:14:25.373Z,9.60
2019-04-14T18:17:14.410Z,9.50
2019-04-14T18:20:03.398Z,9.40
2019-04-14T18:22:32.689Z,9.40
2019-04-14T18:25:02.080Z,9.30
2019-04-14T18:27:34.360Z,9.20
2019-04-14T18:30:09.500Z,9.10
2019-04-14T18:32:49.391Z,9.10
2019-04-14T18:35:20.312Z,9.00
2019-04-14T18:37:54.189Z,8.90
2019-04-14T18:40:28.003Z,8.90
2019-04-14T18:43:01.851Z,8.80
2019-04-14T18:45:38.746Z,8.70
2019-04-14T18:48:25.855Z,8.70
2019-04-14T18:50:56.786Z,8.60
2019-04-14T18:53:40.873Z,8.60
2019-04-14T18:56:28.265Z,8.50
2019-04-14T18:59:02.146Z,8.50
2019-04-14T19:01:33.071Z,8.40
2019-04-14T19:04:02.586Z,8.40
2019-04-14T19:06:32.873Z,8.30
2019-04-14T19:09:02.155Z,8.30
2019-04-14T19:11:34.697Z,8.30
2019-04-14T19:14:05.338Z,8.20
2019-04-14T19:16:39.908Z,8.10
2019-04-14T19:19:09.021Z,8.10
2019-04-14T19:21:38.312Z,8.00
2019-04-14T19:24:07.625Z,8.00
2019-04-14T19:26:36.958Z,8.00
2019-04-14T19:29:06.229Z,7.90
2019-04-14T19:31:35.513Z,7.90
2019-04-14T19:34:04.877Z,7.90
2019-04-14T19:36:34.200Z,7.80
2019-04-14T19:39:06.899Z,7.80
2019-04-14T19:41:36.756Z,7.80
2019-04-14T19:44:06.028Z,7.70
2019-04-14T19:46:35.318Z,7.70
2019-04-14T19:49:04.615Z,7.70
2019-04-14T19:51:33.888Z,7.60
2019-04-14T19:54:03.164Z,7.60
2019-04-14T19:56:32.752Z,7.60
2019-04-14T19:59:03.166Z,7.60
2019-04-14T20:01:32.464Z,7.60
2019-04-14T20:04:01.804Z,7.60
2019-04-14T20:06:31.108Z,7.50
2019-04-14T20:09:01.447Z,7.50
2019-04-14T20:11:32.418Z,7.50
2019-04-14T20:14:01.740Z,7.50
2019-04-14T20:16:49.111Z,7.40
2019-04-14T20:19:31.965Z,7.40
2019-04-14T20:22:11.871Z,7.40
2019-04-14T20:24:43.779Z,7.40
2019-04-14T20:27:14.693Z,7.30
2019-04-14T20:29:48.322Z,7.30
2019-04-14T20:32:20.313Z,7.30
2019-04-14T20:34:49.656Z,7.30
2019-04-14T20:37:19.009Z,7.20
2019-04-14T20:39:48.315Z,7.20
2019-04-14T20:42:17.628Z,7.20
2019-04-14T20:44:46.906Z,7.20
2019-04-14T20:47:16.268Z,7.10
2019-04-14T20:49:45.562Z,7.10
2019-04-14T20:52:15.021Z,7.10
2019-04-14T20:54:44.288Z,7.10
2019-04-14T20:57:14.624Z,7.10
2019-04-14T20:59:43.909Z,7.10
2019-04-14T21:02:24.005Z,7.00
2019-04-14T21:05:11.427Z,7.00
2019-04-14T21:07:58.726Z,7.00
2019-04-14T21:10:29.640Z,6.90
2019-04-14T21:13:15.579Z,6.90
2019-04-14T21:15:46.503Z,6.90
2019-04-14T21:18:23.314Z,6.80
2019-04-14T21:20:56.923Z,6.80
2019-04-14T21:23:33.962Z,6.70
2019-04-14T21:26:04.917Z,6.70
2019-04-14T21:28:52.036Z,6.70
2019-04-14T21:31:37.959Z,6.70
2019-04-14T21:34:25.100Z,6.60
2019-04-14T21:36:56.097Z,6.60
2019-04-14T21:39:33.213Z,6.50
2019-04-14T21:42:02.506Z,6.50
2019-04-14T21:44:31.793Z,6.50
2019-04-14T21:47:01.092Z,6.50
2019-04-14T21:49:30.361Z,6.40
2019-04-14T21:52:07.085Z,6.40
2019-04-14T21:54:36.364Z,6.40
2019-04-14T21:57:13.237Z,6.40
2019-04-14T22:00:00.433Z,6.30
2019-04-14T22:02:31.442Z,6.30
2019-04-14T22:05:02.362Z,6.30
2019-04-14T22:07:33.280Z,6.20
2019-04-14T22:10:06.529Z,6.20
2019-04-14T22:12:35.792Z,6.10
2019-04-14T22:15:06.296Z,6.10
2019-04-14T22:17:35.572Z,6.00
2019-04-14T22:20:05.872Z,5.90
2019-04-14T22:22:35.162Z,5.90
2019-04-14T22:25:06.573Z,5.80
2019-04-14T22:27:35.867Z,5.80
2019-04-14T22:30:07.903Z,5.70
2019-04-14T22:32:38.240Z,5.70
2019-04-14T22:35:07.520Z,5.60
2019-04-14T22:37:36.804Z,5.60
2019-04-14T22:40:06.615Z,5.60
2019-04-14T22:42:35.903Z,5.50
2019-04-14T22:45:06.664Z,5.50
2019-04-14T22:47:35.999Z,5.40
2019-04-14T22:50:06.088Z,5.30
2019-04-14T22:52:35.368Z,5.30
2019-04-14T22:55:06.665Z,5.30
2019-04-14T22:57:35.943Z,5.20
2019-04-14T23:00:08.665Z,5.20
2019-04-14T23:02:56.568Z,5.20
2019-04-14T23:05:45.571Z,5.20
2019-04-14T23:08:16.501Z,5.20
2019-04-14T23:11:02.348Z,5.20
2019-04-14T23:13:45.430Z,5.30
2019-04-14T23:16:19.544Z,5.30
2019-04-14T23:18:56.313Z,5.30
2019-04-14T23:21:27.238Z,5.30
2019-04-14T23:24:13.156Z,5.30
2019-04-14T23:26:52.254Z,5.30
2019-04-14T23:29:13.421Z,5.40
2019-04-14T23:31:42.696Z,5.40
2019-04-14T23:34:11.980Z,5.40
2019-04-14T23:36:41.251Z,5.40
2019-04-14T23:39:12.005Z,5.40
2019-04-14T23:41:41.269Z,5.40
2019-04-14T23:44:10.614Z,5.40
2019-04-14T23:46:39.915Z,5.40
2019-04-14T23:49:09.197Z,5.40
2019-04-14T23:51:38.471Z,5.40
2019-04-14T23:54:07.809Z,5.40
2019-04-14T23:56:37.087Z,5.50
2019-04-14T23:59:06.378Z,5.50
